Time;durP1;ratioP1;P1;durP2;ratioP2;P2;SDS_P1;SDS_P2;PMS_P1;PMS_P2;Temp;Humidity;BMP_temperature;BMP_pressure;BME280_temperature;BME280_humidity;BME280_pressure;Samples;Min_cycle;Max_cycle;Signal;HPM_P1;HPM_P2
2022/03/12 00:00:00;;;;;;;7.90;5.60;;;5.80;63.90;;;;;;5030757;28;20124;-73
2022/03/12 00:02:30;;;;;;;7.40;5.13;;;5.80;63.90;;;;;;5037542;28;20436;-74
2022/03/12 00:04:57;;;;;;;5.78;4.95;;;5.90;63.70;;;;;;5041797;28;20049;-75
2022/03/12 00:07:23;;;;;;;6.78;5.22;;;5.90;63.50;;;;;;5029969;28;20045;-75
2022/03/12 00:09:50;;;;;;;8.45;5.22;;;5.80;63.60;;;;;;5031096;28;20056;-75
2022/03/12 00:12:18;;;;;;;8.50;4.90;;;5.90;63.30;;;;;;5029148;28;20175;-74
2022/03/12 00:14:45;;;;;;;11.80;6.03;;;5.90;63.10;;;;;;5030629;28;20041;-74
2022/03/12 00:17:13;;;;;;;8.95;4.93;;;5.90;63.10;;;;;;5029430;28;20046;-74
2022/03/12 00:19:40;;;;;;;9.45;4.90;;;5.90;63.30;;;;;;5028925;28;20549;-74
2022/03/12 00:22:07;;;;;;;12.93;5.90;;;5.90;63.20;;;;;;5052305;28;20103;-73
2022/03/12 00:24:34;;;;;;;7.63;5.07;;;5.90;63.40;;;;;;5028261;28;20072;-74
2022/03/12 00:27:01;;;;;;;7.18;4.65;;;5.90;63.50;;;;;;5028554;28;20049;-74
2022/03/12 00:29:27;;;;;;;9.10;5.45;;;5.90;63.70;;;;;;5030303;28;20107;-74
2022/03/12 00:31:54;;;;;;;10.20;5.25;;;5.90;63.50;;;;;;5028902;28;20041;-74
2022/03/12 00:34:20;;;;;;;8.55;5.22;;;5.90;63.80;;;;;;5031644;28;20037;-73
2022/03/12 00:36:47;;;;;;;9.20;5.05;;;5.90;63.60;;;;;;5037894;28;20052;-74
2022/03/12 00:39:15;;;;;;;8.40;4.82;;;5.90;63.70;;;;;;5030904;28;20104;-73
2022/03/12 00:41:42;;;;;;;13.30;5.18;;;5.90;63.80;;;;;;5036087;28;20111;-74
2022/03/12 00:44:09;;;;;;;6.90;4.75;;;5.80;64.00;;;;;;5033390;28;20111;-77
2022/03/12 00:46:35;;;;;;;8.18;5.13;;;5.80;63.70;;;;;;5031813;28;20053;-74
2022/03/12 00:49:00;;;;;;;7.53;5.28;;;5.80;63.70;;;;;;5042709;28;20045;-74
2022/03/12 00:51:26;;;;;;;7.22;5.20;;;5.90;64.00;;;;;;5042727;28;20535;-74
2022/03/12 00:53:52;;;;;;;7.70;5.47;;;5.80;63.80;;;;;;5029532;28;20534;-74
2022/03/12 00:56:17;;;;;;;12.15;5.28;;;5.80;63.70;;;;;;5028547;28;20129;-74
2022/03/12 00:58:45;;;;;;;6.35;4.55;;;5.80;64.10;;;;;;5027874;28;20427;-74
2022/03/12 01:01:12;;;;;;;7.97;5.45;;;5.80;63.80;;;;;;5027871;28;20222;-74
2022/03/12 01:03:38;;;;;;;9.15;5.45;;;5.80;63.60;;;;;;5029812;28;20120;-74
2022/03/12 01:06:05;;;;;;;9.63;5.25;;;5.80;64.00;;;;;;5034185;28;20128;-74
2022/03/12 01:08:32;;;;;;;8.10;5.20;;;5.80;64.10;;;;;;5041856;28;20064;-74
2022/03/12 01:11:03;;;;;;;7.28;5.20;;;5.80;63.80;;;;;;5029152;28;20048;-74
2022/03/12 01:13:28;;;;;;;10.23;5.10;;;5.80;63.70;;;;;;5039123;28;20441;-74
2022/03/12 01:15:54;;;;;;;10.52;5.35;;;5.80;63.60;;;;;;5038493;28;20041;-74
2022/03/12 01:18:21;;;;;;;6.60;4.43;;;5.80;63.80;;;;;;5030485;28;20510;-74
2022/03/12 01:20:48;;;;;;;8.27;5.13;;;5.80;63.70;;;;;;5028831;28;20099;-74
2022/03/12 01:23:16;;;;;;;17.75;7.22;;;5.80;63.80;;;;;;5029352;28;20468;-74
2022/03/12 01:25:42;;;;;;;6.18;4.63;;;5.80;63.80;;;;;;5028949;28;20117;-74
2022/03/12 01:28:09;;;;;;;7.57;4.88;;;5.80;64.10;;;;;;5029097;28;20099;-74
2022/03/12 01:30:34;;;;;;;12.60;5.60;;;5.70;64.30;;;;;;5028123;28;20053;-73
2022/03/12 01:33:00;;;;;;;12.43;5.35;;;5.70;64.20;;;;;;5028869;28;20414;-74
2022/03/12 01:35:26;;;;;;;9.68;4.82;;;5.70;64.40;;;;;;5030020;28;20049;-74
2022/03/12 01:37:52;;;;;;;8.27;5.70;;;5.70;64.20;;;;;;5028413;28;20438;-73
2022/03/12 01:40:18;;;;;;;11.90;5.47;;;5.70;64.50;;;;;;5030131;28;20069;-74
2022/03/12 01:42:44;;;;;;;7.93;5.47;;;5.70;64.40;;;;;;5029835;28;20131;-74
2022/03/12 01:45:11;;;;;;;6.43;5.03;;;5.70;64.50;;;;;;5032093;28;20057;-73
2022/03/12 01:47:38;;;;;;;12.90;5.72;;;5.60;64.80;;;;;;5032230;28;20045;-75
2022/03/12 01:50:05;;;;;;;7.70;5.30;;;5.60;64.70;;;;;;5033652;28;20519;-74
2022/03/12 01:52:31;;;;;;;7.38;5.25;;;5.60;64.90;;;;;;5032676;28;20049;-74
2022/03/12 01:54:57;;;;;;;8.95;5.82;;;5.60;64.90;;;;;;5032065;28;20395;-74
2022/03/12 01:57:23;;;;;;;8.00;4.78;;;5.60;65.60;;;;;;5031588;28;20068;-74
2022/03/12 01:59:49;;;;;;;8.45;4.97;;;5.50;65.10;;;;;;5033626;28;20773;-74
2022/03/12 02:02:15;;;;;;;9.60;5.13;;;5.50;65.30;;;;;;5032357;28;20080;-74
2022/03/12 02:04:49;;;;;;;7.07;4.93;;;5.50;65.60;;;;;;5030908;28;20099;-73
2022/03/12 02:07:16;;;;;;;7.95;4.95;;;5.50;65.30;;;;;;5032271;28;20534;-73
2022/03/12 02:09:42;;;;;;;6.35;5.10;;;5.50;65.50;;;;;;5031652;28;20053;-74
2022/03/12 02:12:08;;;;;;;6.30;4.53;;;5.50;65.50;;;;;;5032984;28;20392;-73
2022/03/12 02:14:34;;;;;;;8.85;5.78;;;5.50;66.00;;;;;;5045340;28;20052;-74
2022/03/12 02:17:03;;;;;;;7.13;4.53;;;5.50;65.80;;;;;;5038600;28;20064;-74
2022/03/12 02:19:31;;;;;;;7.25;5.15;;;5.50;65.70;;;;;;5030699;28;20053;-74
2022/03/12 02:21:58;;;;;;;7.95;5.97;;;5.50;65.80;;;;;;5032996;28;20049;-74
2022/03/12 02:24:27;;;;;;;8.82;6.13;;;5.50;65.70;;;;;;5031325;28;20124;-74
2022/03/12 02:26:55;;;;;;;6.82;4.75;;;5.50;66.00;;;;;;5032385;28;20041;-74
2022/03/12 02:29:23;;;;;;;8.30;5.20;;;5.50;66.00;;;;;;5031480;28;20076;-74
2022/03/12 02:31:56;;;;;;;6.60;5.20;;;5.40;66.30;;;;;;5031773;28;20045;-73
2022/03/12 02:34:26;;;;;;;12.40;6.32;;;5.40;66.00;;;;;;5031183;28;20136;-74
2022/03/12 02:36:53;;;;;;;12.45;5.75;;;5.40;66.20;;;;;;5033746;28;20049;-74
2022/03/12 02:39:20;;;;;;;7.90;5.18;;;5.40;66.20;;;;;;5045892;28;20060;-74
2022/03/12 02:41:47;;;;;;;5.25;4.13;;;5.40;66.30;;;;;;5031458;28;20057;-74
2022/03/12 02:44:19;;;;;;;7.97;5.07;;;5.40;66.40;;;;;;5031418;28;20053;-74
2022/03/12 02:47:15;;;;;;;8.05;6.18;;;5.40;66.10;;;;;;5030192;28;20049;-74
2022/03/12 02:49:54;;;;;;;8.95;5.68;;;5.40;66.50;;;;;;5031157;28;20403;-74
2022/03/12 02:52:22;;;;;;;6.80;5.30;;;5.40;66.40;;;;;;5031290;28;20061;-74
2022/03/12 02:54:49;;;;;;;8.60;6.07;;;5.40;66.60;;;;;;5031188;28;20053;-74
2022/03/12 02:57:16;;;;;;;7.60;4.60;;;5.40;66.50;;;;;;5032364;28;20540;-74
2022/03/12 02:59:43;;;;;;;6.03;5.05;;;5.40;66.50;;;;;;5030703;28;20053;-74
2022/03/12 03:02:11;;;;;;;11.68;6.43;;;5.40;66.50;;;;;;5030461;28;20049;-74
2022/03/12 03:04:38;;;;;;;8.02;5.57;;;5.40;66.80;;;;;;5030702;28;20053;-74
2022/03/12 03:07:04;;;;;;;10.82;6.15;;;5.40;66.70;;;;;;5031279;28;20072;-74
2022/03/12 03:09:30;;;;;;;13.80;5.78;;;5.40;66.80;;;;;;5031245;28;20397;-73
2022/03/12 03:11:57;;;;;;;8.18;5.35;;;5.30;66.80;;;;;;5030598;28;20049;-73
2022/03/12 03:14:26;;;;;;;6.65;5.43;;;5.30;66.60;;;;;;5043751;28;20061;-74
2022/03/12 03:16:58;;;;;;;6.60;4.82;;;5.30;66.90;;;;;;5033160;28;20052;-74
2022/03/12 03:19:25;;;;;;;8.00;5.53;;;5.30;66.80;;;;;;5051799;28;20060;-74
2022/03/12 03:21:53;;;;;;;9.07;5.40;;;5.40;66.80;;;;;;5046539;28;20049;-74
2022/03/12 03:24:19;;;;;;;10.82;5.20;;;5.30;66.80;;;;;;5030526;28;20061;-74
2022/03/12 03:26:44;;;;;;;7.88;5.03;;;5.30;66.80;;;;;;5030454;28;20053;-74
2022/03/12 03:29:10;;;;;;;9.82;5.40;;;5.40;66.70;;;;;;5030090;28;20053;-74
2022/03/12 03:31:36;;;;;;;7.45;5.80;;;5.30;66.80;;;;;;5030188;28;20503;-74
2022/03/12 03:34:02;;;;;;;8.93;6.40;;;5.30;66.50;;;;;;5031828;28;20087;-74
2022/03/12 03:36:28;;;;;;;7.95;5.68;;;5.40;66.50;;;;;;5030835;28;20045;-74
2022/03/12 03:38:54;;;;;;;9.30;5.78;;;5.40;66.30;;;;;;5031550;28;20435;-73
2022/03/12 03:41:19;;;;;;;7.72;5.95;;;5.40;66.40;;;;;;5031549;28;20049;-74
2022/03/12 03:43:47;;;;;;;11.15;5.60;;;5.40;66.50;;;;;;5030541;28;20088;-74
2022/03/12 03:46:17;;;;;;;8.82;5.63;;;5.40;66.40;;;;;;5031644;28;20030;-74
2022/03/12 03:48:46;;;;;;;7.65;6.03;;;5.40;66.30;;;;;;5031886;28;20103;-73
2022/03/12 03:51:12;;;;;;;6.28;5.00;;;5.30;66.40;;;;;;5040719;28;20491;-74
2022/03/12 03:53:37;;;;;;;7.47;5.43;;;5.40;66.60;;;;;;5031339;28;20132;-74
2022/03/12 03:56:04;;;;;;;6.47;4.60;;;5.30;66.80;;;;;;5049957;28;20535;-74
2022/03/12 03:58:32;;;;;;;9.85;6.32;;;5.30;66.90;;;;;;5045577;28;20081;-74
2022/03/12 04:01:30;;;;;;;8.95;5.78;;;5.30;67.00;;;;;;5029793;28;20081;-74
2022/03/12 04:03:55;;;;;;;7.55;5.57;;;5.30;67.10;;;;;;5018261;28;20450;-74
2022/03/12 04:06:22;;;;;;;8.25;5.72;;;5.30;67.30;;;;;;5029443;28;20052;-74
2022/03/12 04:08:49;;;;;;;8.18;5.53;;;5.20;67.50;;;;;;5029742;28;20038;-73
2022/03/12 04:11:17;;;;;;;6.97;5.03;;;5.20;67.90;;;;;;5029120;28;20064;-74
2022/03/12 04:13:43;;;;;;;5.53;5.00;;;5.10;68.10;;;;;;5030788;28;20092;-74
2022/03/12 04:16:10;;;;;;;8.82;5.35;;;5.10;68.40;;;;;;5031175;28;20045;-74
2022/03/12 04:18:37;;;;;;;9.90;6.22;;;5.00;68.30;;;;;;5028548;28;20061;-73
2022/03/12 04:21:05;;;;;;;7.60;6.07;;;5.00;68.10;;;;;;5029497;28;20041;-74
2022/03/12 04:23:31;;;;;;;10.27;5.60;;;4.90;68.20;;;;;;5030620;28;20064;-75
2022/03/12 04:25:59;;;;;;;6.25;4.65;;;4.90;68.00;;;;;;5028987;28;20049;-74
2022/03/12 04:28:30;;;;;;;7.13;5.32;;;4.90;68.20;;;;;;5029188;28;20053;-73
2022/03/12 04:30:56;;;;;;;10.05;5.80;;;4.90;68.10;;;;;;5029440;28;20055;-74
2022/03/12 04:33:22;;;;;;;8.75;5.53;;;4.90;68.10;;;;;;5028908;28;20148;-74
2022/03/12 04:35:49;;;;;;;7.70;5.30;;;4.90;68.20;;;;;;5029575;28;20081;-74
2022/03/12 04:38:15;;;;;;;8.38;5.45;;;4.90;68.30;;;;;;5029560;28;20053;-74
2022/03/12 04:40:43;;;;;;;8.90;6.43;;;4.90;68.50;;;;;;5029754;28;20462;-74
2022/03/12 04:43:11;;;;;;;6.85;4.80;;;4.80;68.70;;;;;;5030700;28;20479;-74
2022/03/12 04:45:37;;;;;;;8.02;5.57;;;4.80;68.80;;;;;;5030251;28;20635;-74
2022/03/12 04:48:03;;;;;;;7.63;4.55;;;4.80;69.10;;;;;;5028648;28;20404;-74
2022/03/12 04:50:29;;;;;;;8.65;5.72;;;4.80;69.10;;;;;;5029030;28;20049;-74
2022/03/12 04:53:00;;;;;;;8.82;5.38;;;4.80;69.10;;;;;;5029164;28;20439;-74
2022/03/12 04:55:28;;;;;;;7.82;5.30;;;4.70;69.10;;;;;;5030214;28;20041;-74
2022/03/12 04:57:53;;;;;;;8.57;5.10;;;4.70;69.20;;;;;;5029139;28;20056;-74
2022/03/12 05:00:28;;;;;;;12.15;5.97;;;4.70;69.10;;;;;;5029752;28;20041;-74
2022/03/12 05:03:00;;;;;;;6.47;4.68;;;4.70;69.30;;;;;;5029294;28;20084;-74
2022/03/12 05:05:26;;;;;;;7.65;5.90;;;4.70;69.50;;;;;;5030492;28;20049;-74
2022/03/12 05:07:51;;;;;;;9.25;5.72;;;4.70;69.70;;;;;;5028609;28;20128;-74
2022/03/12 05:10:17;;;;;;;8.80;4.90;;;4.70;69.70;;;;;;5030644;28;20495;-74
2022/03/12 05:12:43;;;;;;;9.98;6.07;;;4.60;70.10;;;;;;5028681;28;20069;-74
2022/03/12 05:15:14;;;;;;;9.38;5.57;;;4.60;70.50;;;;;;5028329;28;20045;-74
2022/03/12 05:17:47;;;;;;;11.38;5.88;;;4.60;71.20;;;;;;5031562;28;20053;-74
2022/03/12 05:20:18;;;;;;;7.20;4.97;;;4.60;71.20;;;;;;5033000;28;20511;-74
2022/03/12 05:22:44;;;;;;;5.57;4.60;;;4.60;71.10;;;;;;5033092;28;20056;-73
2022/03/12 05:25:10;;;;;;;7.53;5.18;;;4.60;71.20;;;;;;5032738;28;20053;-74
2022/03/12 05:27:36;;;;;;;6.95;5.30;;;4.60;71.30;;;;;;5032291;28;20102;-74
2022/03/12 05:30:02;;;;;;;8.38;4.72;;;4.70;71.20;;;;;;5033346;28;20128;-74
2022/03/12 05:32:28;;;;;;;9.48;5.07;;;4.70;71.30;;;;;;5032650;28;20045;-74
2022/03/12 05:34:53;;;;;;;11.38;6.05;;;4.70;71.30;;;;;;5038917;28;20043;-73
2022/03/12 05:37:21;;;;;;;9.48;5.85;;;4.70;71.40;;;;;;5043658;28;20107;-74
2022/03/12 05:39:51;;;;;;;7.45;4.82;;;4.70;71.30;;;;;;5051397;28;20607;-74
2022/03/12 05:42:20;;;;;;;7.03;4.97;;;4.70;71.50;;;;;;5043177;28;20056;-74
2022/03/12 05:44:46;;;;;;;6.70;4.65;;;4.70;71.70;;;;;;5031894;28;20084;-74
2022/03/12 05:47:11;;;;;;;7.32;5.22;;;4.70;71.60;;;;;;5033863;28;20547;-74
2022/03/12 05:49:37;;;;;;;8.25;5.75;;;4.80;71.90;;;;;;5032773;28;20076;-74
2022/03/12 05:52:03;;;;;;;9.63;5.45;;;4.80;72.00;;;;;;5032447;28;20502;-74
2022/03/12 05:54:28;;;;;;;7.55;5.28;;;4.80;72.20;;;;;;5032062;28;20484;-74
2022/03/12 05:56:56;;;;;;;8.60;5.30;;;4.80;72.80;;;;;;5031454;28;20044;-74
2022/03/12 05:59:22;;;;;;;6.22;5.22;;;4.80;72.90;;;;;;5032538;28;20053;-74
2022/03/12 06:01:50;;;;;;;9.07;5.00;;;4.80;73.30;;;;;;5032324;28;20072;-74
2022/03/12 06:04:19;;;;;;;5.70;5.07;;;4.80;73.80;;;;;;5033116;28;20547;-74
2022/03/12 06:06:46;;;;;;;8.35;5.28;;;4.80;74.40;;;;;;5041642;28;20048;-74
2022/03/12 06:09:12;;;;;;;7.05;5.40;;;4.80;74.30;;;;;;5038997;28;20049;-74
2022/03/12 06:11:38;;;;;;;7.80;5.53;;;4.80;74.30;;;;;;5042048;28;20049;-74
2022/03/12 06:14:04;;;;;;;9.07;5.22;;;4.80;74.70;;;;;;5033903;28;20045;-74
2022/03/12 06:16:31;;;;;;;7.00;5.18;;;4.80;74.30;;;;;;5033045;28;20080;-74
2022/03/12 06:18:57;;;;;;;6.65;4.60;;;4.80;74.00;;;;;;5032490;28;20049;-74
2022/03/12 06:21:22;;;;;;;12.73;5.45;;;4.80;74.00;;;;;;5032881;28;20044;-73
2022/03/12 06:23:49;;;;;;;8.73;5.65;;;4.80;73.80;;;;;;5032709;28;20054;-74
2022/03/12 06:26:17;;;;;;;11.05;5.07;;;4.80;73.80;;;;;;5031329;28;20092;-74
2022/03/12 06:28:44;;;;;;;6.55;4.63;;;4.80;74.30;;;;;;5032172;28;20057;-74
2022/03/12 06:31:12;;;;;;;6.28;5.20;;;4.80;73.80;;;;;;5033063;28;20049;-74
2022/03/12 06:33:39;;;;;;;8.88;5.20;;;4.80;74.60;;;;;;5031835;28;20072;-74
2022/03/12 06:36:05;;;;;;;6.57;5.47;;;4.80;74.10;;;;;;5031497;28;20500;-74
2022/03/12 06:38:32;;;;;;;7.70;5.85;;;4.90;74.60;;;;;;5030694;28;20056;-73
2022/03/12 06:40:58;;;;;;;7.72;5.10;;;4.80;75.60;;;;;;5032501;28;20095;-74
2022/03/12 06:43:28;;;;;;;6.70;5.00;;;4.80;75.80;;;;;;5047894;28;20041;-74
2022/03/12 06:45:59;;;;;;;8.77;5.05;;;4.80;75.50;;;;;;5030561;28;20100;-74
2022/03/12 06:48:25;;;;;;;7.65;5.20;;;4.80;75.30;;;;;;5037631;28;20056;-74
2022/03/12 06:50:51;;;;;;;6.40;4.90;;;4.80;75.80;;;;;;5032420;28;20057;-74
2022/03/12 06:53:17;;;;;;;6.50;5.05;;;4.80;75.80;;;;;;5037324;28;20041;-74
2022/03/12 06:55:44;;;;;;;6.05;5.32;;;4.80;75.10;;;;;;5042896;28;20131;-74
2022/03/12 06:58:10;;;;;;;9.20;5.80;;;4.90;75.30;;;;;;5051293;28;20045;-74
2022/03/12 07:00:36;;;;;;;7.15;5.40;;;4.80;74.70;;;;;;5036067;28;20574;-74
2022/03/12 07:03:02;;;;;;;6.72;4.80;;;4.90;74.60;;;;;;5032345;28;20124;-74
2022/03/12 07:05:28;;;;;;;11.98;5.53;;;4.90;74.90;;;;;;5032014;28;20099;-74
2022/03/12 07:07:54;;;;;;;7.93;5.97;;;4.90;74.50;;;;;;5031686;28;20038;-74
2022/03/12 07:10:21;;;;;;;4.93;4.43;;;5.00;74.50;;;;;;5039224;28;20094;-73
2022/03/12 07:12:47;;;;;;;10.25;5.07;;;5.00;75.10;;;;;;5043497;28;20408;-74
2022/03/12 07:15:14;;;;;;;9.30;5.40;;;5.10;74.80;;;;;;5040468;28;20052;-74
2022/03/12 07:17:41;;;;;;;7.55;5.53;;;5.10;74.80;;;;;;5039412;28;20165;-74
2022/03/12 07:20:08;;;;;;;8.05;5.00;;;5.20;75.90;;;;;;5041895;28;20044;-74
2022/03/12 07:22:34;;;;;;;8.68;6.20;;;5.20;75.00;;;;;;5030063;28;20140;-74
2022/03/12 07:25:00;;;;;;;10.77;5.93;;;5.30;74.50;;;;;;5030365;28;20199;-73
2022/03/12 07:27:26;;;;;;;8.93;5.47;;;5.40;74.40;;;;;;5031636;28;20052;-74
2022/03/12 07:29:52;;;;;;;9.27;5.97;;;5.50;74.60;;;;;;5031040;28;20077;-75
2022/03/12 07:32:18;;;;;;;6.57;5.10;;;5.50;74.90;;;;;;5035801;28;20057;-74
2022/03/12 07:34:43;;;;;;;7.35;5.20;;;5.60;74.90;;;;;;5037840;28;20053;-74
2022/03/12 07:37:11;;;;;;;8.23;5.45;;;5.70;74.20;;;;;;5042103;28;20414;-74
2022/03/12 07:39:37;;;;;;;8.90;6.10;;;5.80;74.00;;;;;;5035294;28;20076;-74
2022/03/12 07:42:04;;;;;;;9.73;5.47;;;5.80;73.30;;;;;;5031880;28;20041;-74
2022/03/12 07:44:30;;;;;;;8.73;5.97;;;5.90;73.90;;;;;;5051217;28;20045;-74
2022/03/12 07:46:56;;;;;;;7.53;5.97;;;5.90;74.10;;;;;;5041785;28;20488;-74
2022/03/12 07:49:23;;;;;;;14.80;5.65;;;6.00;74.30;;;;;;5043098;28;20134;-74
2022/03/12 07:51:50;;;;;;;9.52;5.55;;;6.10;74.10;;;;;;5041992;28;20045;-74
2022/03/12 07:54:16;;;;;;;7.93;5.82;;;6.10;74.00;;;;;;5030035;28;20136;-74
2022/03/12 07:56:42;;;;;;;7.00;5.40;;;6.20;74.20;;;;;;5030421;28;20128;-74
2022/03/12 07:59:09;;;;;;;7.95;5.53;;;6.30;73.70;;;;;;5049922;28;20096;-74
2022/03/12 08:01:34;;;;;;;6.72;5.93;;;6.40;73.70;;;;;;5044069;28;20040;-73
2022/03/12 08:04:01;;;;;;;5.68;4.82;;;6.50;73.90;;;;;;5029641;28;20128;-74
2022/03/12 08:06:28;;;;;;;6.90;5.40;;;6.60;73.70;;;;;;5044537;28;20391;-74
2022/03/12 08:08:54;;;;;;;7.03;5.57;;;6.70;73.70;;;;;;5044228;28;20553;-75
2022/03/12 08:11:29;;;;;;;10.23;5.50;;;6.70;72.70;;;;;;5041783;28;20040;-75
2022/03/12 08:14:01;;;;;;;6.57;5.85;;;6.70;73.20;;;;;;5039235;28;20049;-74
2022/03/12 08:16:28;;;;;;;9.27;5.60;;;6.80;73.40;;;;;;5046940;28;20052;-75
2022/03/12 08:18:54;;;;;;;7.75;6.00;;;6.90;73.40;;;;;;5035240;28;20099;-74
2022/03/12 08:21:20;;;;;;;8.93;6.22;;;7.00;73.80;;;;;;5032785;28;20082;-74
2022/03/12 08:23:49;;;;;;;10.52;6.13;;;7.20;73.70;;;;;;5030285;28;20504;-74
2022/03/12 08:26:16;;;;;;;11.50;7.30;;;7.20;73.70;;;;;;5028447;28;20084;-74
2022/03/12 08:28:42;;;;;;;7.90;6.18;;;7.30;73.60;;;;;;5029105;28;20045;-75
2022/03/12 08:31:08;;;;;;;8.80;5.72;;;7.40;74.00;;;;;;5033601;28;20140;-74
2022/03/12 08:33:35;;;;;;;10.07;7.00;;;7.40;73.70;;;;;;5029615;28;20080;-75
2022/03/12 08:36:02;;;;;;;10.18;6.20;;;7.50;73.60;;;;;;5033092;28;20080;-76
2022/03/12 08:38:28;;;;;;;9.27;6.60;;;7.50;74.00;;;;;;5044578;28;20043;-76
2022/03/12 08:40:54;;;;;;;10.70;6.55;;;7.60;74.50;;;;;;5051798;28;20116;-76
2022/03/12 08:43:21;;;;;;;14.32;7.40;;;7.80;74.60;;;;;;5050649;28;20124;-76
2022/03/12 08:45:48;;;;;;;11.43;7.28;;;8.00;75.40;;;;;;5044976;28;20099;-77
2022/03/12 08:48:14;;;;;;;10.50;7.07;;;8.30;75.80;;;;;;5030452;28;20037;-77
2022/03/12 08:50:40;;;;;;;10.88;6.88;;;8.50;75.10;;;;;;5036595;28;20055;-74
2022/03/12 08:53:06;;;;;;;10.25;6.93;;;8.60;74.60;;;;;;5050721;28;20445;-74
2022/03/12 08:55:31;;;;;;;11.40;7.55;;;8.70;75.30;;;;;;5043138;28;20045;-73
2022/03/12 08:57:57;;;;;;;10.50;7.72;;;8.80;75.50;;;;;;5048058;28;20052;-74
2022/03/12 09:00:23;;;;;;;11.27;7.75;;;8.90;75.80;;;;;;5044771;28;20081;-73
2022/03/12 09:02:49;;;;;;;8.27;6.32;;;8.90;76.20;;;;;;5033078;28;20076;-78
2022/03/12 09:05:16;;;;;;;10.13;7.40;;;9.00;75.90;;;;;;5039408;28;20104;-75
2022/03/12 09:07:43;;;;;;;11.40;7.35;;;9.10;75.30;;;;;;5050718;28;20072;-76
2022/03/12 09:10:11;;;;;;;8.80;7.07;;;9.20;75.70;;;;;;5040376;28;20045;-84
2022/03/12 09:12:37;;;;;;;11.55;7.53;;;9.30;75.60;;;;;;5048467;28;20057;-81
2022/03/12 09:15:04;;;;;;;11.07;7.50;;;9.40;76.50;;;;;;5032544;28;20045;-73
2022/03/12 09:17:30;;;;;;;9.77;6.82;;;9.50;76.10;;;;;;5034139;28;20046;-74
2022/03/12 09:19:55;;;;;;;10.23;7.60;;;9.60;76.60;;;;;;5043182;28;20144;-73
2022/03/12 09:22:23;;;;;;;10.60;7.55;;;9.70;77.10;;;;;;5034162;28;20103;-73
2022/03/12 09:24:49;;;;;;;8.82;7.82;;;9.90;77.20;;;;;;5037158;28;20088;-70
2022/03/12 09:27:14;;;;;;;9.80;7.43;;;10.00;76.90;;;;;;5042587;28;20513;-70
2022/03/12 09:29:41;;;;;;;9.15;7.72;;;10.10;77.50;;;;;;5032716;28;20045;-71
2022/03/12 09:32:08;;;;;;;11.18;8.95;;;10.20;77.00;;;;;;5038708;28;20053;-73
2022/03/12 09:34:34;;;;;;;18.60;8.63;;;10.30;77.60;;;;;;5037005;28;20131;-74
2022/03/12 09:37:01;;;;;;;11.15;7.90;;;10.40;77.90;;;;;;5030959;28;20080;-73
2022/03/12 09:39:26;;;;;;;10.63;8.55;;;10.40;78.30;;;;;;5031418;28;20049;-74
2022/03/12 09:41:52;;;;;;;10.02;8.30;;;10.40;77.80;;;;;;5032171;28;20072;-73
2022/03/12 09:44:18;;;;;;;10.27;7.95;;;10.40;77.90;;;;;;5032486;28;20049;-73
2022/03/12 09:46:44;;;;;;;12.75;7.68;;;10.40;78.40;;;;;;5033596;28;20412;-73
2022/03/12 09:49:11;;;;;;;15.73;8.30;;;10.40;78.90;;;;;;5031960;28;20049;-73
2022/03/12 09:51:37;;;;;;;15.55;7.85;;;10.50;80.50;;;;;;5033343;28;20053;-73
2022/03/12 09:54:03;;;;;;;15.82;8.80;;;10.60;79.60;;;;;;5031927;28;20049;-73
2022/03/12 09:56:30;;;;;;;13.18;8.15;;;10.70;80.40;;;;;;5031486;28;20212;-73
2022/03/12 09:58:56;;;;;;;12.48;8.15;;;10.80;81.00;;;;;;5033632;28;20049;-74
2022/03/12 10:01:21;;;;;;;11.75;7.93;;;10.90;81.40;;;;;;5033686;28;20406;-73
2022/03/12 10:03:47;;;;;;;10.80;8.40;;;10.90;82.00;;;;;;5030204;28;20049;-73
2022/03/12 10:06:15;;;;;;;14.52;8.95;;;10.90;81.70;;;;;;5033498;28;20571;-74
2022/03/12 10:08:41;;;;;;;11.48;8.77;;;11.00;82.00;;;;;;5031541;28;20499;-73
2022/03/12 10:11:07;;;;;;;10.68;8.68;;;10.90;82.80;;;;;;5031735;28;20103;-74
2022/03/12 10:13:33;;;;;;;11.07;8.45;;;11.00;82.90;;;;;;5033085;28;20495;-73
2022/03/12 10:15:59;;;;;;;10.75;7.78;;;11.00;83.40;;;;;;5033244;28;20083;-74
2022/03/12 10:18:28;;;;;;;10.40;7.80;;;11.10;84.60;;;;;;5032361;28;20128;-73
2022/03/12 10:20:54;;;;;;;12.75;8.95;;;11.20;85.50;;;;;;5033085;28;20467;-73
2022/03/12 10:23:20;;;;;;;12.85;7.22;;;11.30;85.60;;;;;;5031460;28;20057;-73
2022/03/12 10:25:45;;;;;;;13.15;7.30;;;11.40;88.20;;;;;;5032351;28;20396;-73
2022/03/12 10:28:12;;;;;;;10.93;7.72;;;11.50;89.20;;;;;;5031998;28;20488;-73
2022/03/12 10:30:38;;;;;;;11.35;7.88;;;11.60;90.30;;;;;;5032125;28;20457;-75
2022/03/12 10:33:05;;;;;;;11.13;7.65;;;11.70;90.70;;;;;;5031812;28;20697;-74
2022/03/12 10:35:38;;;;;;;9.70;7.53;;;11.90;91.10;;;;;;5031356;28;20048;-73
2022/03/12 10:38:11;;;;;;;12.73;8.05;;;11.90;91.40;;;;;;5031065;28;20479;-74
2022/03/12 10:40:38;;;;;;;10.65;7.85;;;12.10;91.90;;;;;;5032493;28;20042;-73
2022/03/12 10:43:12;;;;;;;8.82;7.53;;;12.00;91.90;;;;;;5032814;28;20053;-75
2022/03/12 10:45:45;;;;;;;10.65;7.32;;;12.10;92.10;;;;;;5030431;28;20045;-74
2022/03/12 10:48:12;;;;;;;7.40;6.68;;;12.10;92.80;;;;;;5032681;28;20042;-74
2022/03/12 10:50:47;;;;;;;13.75;8.05;;;12.10;92.90;;;;;;5031185;28;20490;-73
2022/03/12 10:53:15;;;;;;;7.97;6.88;;;12.20;93.80;;;;;;5030820;28;20087;-74
2022/03/12 10:55:44;;;;;;;7.95;6.88;;;12.30;94.60;;;;;;5031208;28;20049;-74
2022/03/12 10:58:26;;;;;;;8.90;7.07;;;12.30;95.30;;;;;;5032585;28;20049;-74
2022/03/12 11:00:52;;;;;;;;;;;12.40;96.50;;;;;;5030907;28;20545;-74
2022/03/12 11:03:26;;;;;;;7.07;5.75;;;12.50;96.70;;;;;;5032513;28;19921;-74
2022/03/12 11:05:56;;;;;;;9.77;6.60;;;12.60;98.00;;;;;;5030275;28;20047;-74
2022/03/12 11:08:33;;;;;;;8.10;6.97;;;12.70;97.20;;;;;;5032240;28;20107;-73
2022/03/12 11:11:00;;;;;;;8.75;6.50;;;12.60;97.50;;;;;;5032142;28;20091;-74
2022/03/12 11:13:36;;;;;;;7.00;6.30;;;12.60;97.30;;;;;;5031375;28;20072;-74
2022/03/12 11:16:18;;;;;;;9.70;6.00;;;12.60;97.90;;;;;;5032159;28;20045;-74
2022/03/12 11:18:52;;;;;;;9.88;6.25;;;12.70;98.30;;;;;;5030631;28;20484;-74
2022/03/12 11:21:37;;;;;;;9.43;6.80;;;12.80;98.40;;;;;;5031490;28;20077;-74
2022/03/12 11:24:23;;;;;;;9.55;6.30;;;12.90;98.70;;;;;;5030575;28;20050;-74
2022/03/12 11:26:58;;;;;;;8.23;6.68;;;12.90;98.80;;;;;;5031978;28;20057;-74
2022/03/12 11:29:26;;;;;;;9.27;6.97;;;13.00;98.90;;;;;;5030596;28;20045;-74
2022/03/12 11:31:56;;;;;;;8.15;7.07;;;13.00;98.60;;;;;;5031768;28;20273;-74
2022/03/12 11:34:33;;;;;;;8.63;6.20;;;13.00;98.30;;;;;;5031486;28;20056;-73
2022/03/12 11:36:59;;;;;;;8.20;6.13;;;13.00;98.10;;;;;;5030442;28;20045;-74
2022/03/12 11:39:34;;;;;;;7.88;6.40;;;13.00;98.30;;;;;;5030332;28;20183;-74
2022/03/12 11:42:11;;;;;;;11.05;6.53;;;13.10;99.00;;;;;;5029715;28;20045;-74
2022/03/12 11:44:49;;;;;;;9.38;7.00;;;13.00;99.20;;;;;;5029837;28;20115;-74
2022/03/12 11:47:22;;;;;;;7.50;6.25;;;13.00;99.30;;;;;;5033705;28;20148;-75
2022/03/12 11:49:49;;;;;;;8.18;6.05;;;13.10;99.10;;;;;;5037118;28;20104;-71
2022/03/12 11:52:16;;;;;;;7.47;5.47;;;13.10;99.50;;;;;;5032122;28;20088;-74
2022/03/12 11:54:43;;;;;;;9.20;6.38;;;13.10;99.70;;;;;;5033993;28;20052;-74
2022/03/12 11:57:10;;;;;;;8.15;5.57;;;13.20;99.70;;;;;;5038806;28;20046;-72
2022/03/12 11:59:38;;;;;;;8.65;6.10;;;13.30;99.50;;;;;;5043062;28;20127;-72
2022/03/12 12:02:17;;;;;;;8.38;5.60;;;13.50;98.40;;;;;;5047799;28;20081;-72
2022/03/12 12:04:43;;;;;;;6.88;6.15;;;13.60;98.10;;;;;;5030861;28;20049;-73
2022/03/12 12:07:10;;;;;;;6.05;4.80;;;13.70;98.50;;;;;;5043714;28;20044;-73
2022/03/12 12:09:36;;;;;;;7.72;4.88;;;13.70;97.70;;;;;;5041705;28;20081;-74
2022/03/12 12:12:06;;;;;;;13.45;4.65;;;13.80;97.10;;;;;;5029757;28;20080;-72
2022/03/12 12:14:36;;;;;;;5.22;4.38;;;13.80;96.00;;;;;;5029884;28;20407;-71
2022/03/12 12:17:01;;;;;;;6.18;4.85;;;13.70;95.50;;;;;;5039216;28;20063;-71
2022/03/12 12:19:27;;;;;;;4.60;4.15;;;13.70;95.60;;;;;;5048623;28;20045;-70
2022/03/12 12:21:53;;;;;;;11.02;5.60;;;13.60;95.70;;;;;;5041031;28;20510;-71
2022/03/12 12:24:35;;;;;;;10.65;5.80;;;13.60;95.80;;;;;;5035444;28;20107;-71
2022/03/12 12:27:06;;;;;;;6.47;4.90;;;13.50;96.80;;;;;;5044632;28;20049;-71
2022/03/12 12:29:55;;;;;;;4.60;4.20;;;13.50;97.20;;;;;;5050326;28;20055;-72
2022/03/12 12:32:25;;;;;;;9.57;4.20;;;13.50;96.20;;;;;;5039750;28;20053;-71
2022/03/12 12:35:03;;;;;;;5.30;4.00;;;13.50;94.90;;;;;;5034503;28;20127;-71
2022/03/12 12:37:39;;;;;;;6.20;4.45;;;13.40;95.00;;;;;;5049776;28;20080;-71
2022/03/12 12:40:16;;;;;;;8.25;4.18;;;13.50;95.00;;;;;;5049387;28;20060;-71
2022/03/12 12:42:45;;;;;;;8.32;4.22;;;13.50;95.40;;;;;;5045952;28;20088;-71
2022/03/12 12:45:16;;;;;;;6.43;3.90;;;13.50;95.90;;;;;;5028039;28;20049;-71
2022/03/12 12:47:42;;;;;;;7.65;5.60;;;13.60;96.10;;;;;;5028114;28;20045;-71
2022/03/12 12:50:28;;;;;;;6.85;4.45;;;13.70;96.40;;;;;;5028950;28;20053;-71
2022/03/12 12:53:11;;;;;;;8.52;5.05;;;13.70;96.00;;;;;;5027980;28;20057;-71
2022/03/12 12:55:38;;;;;;;8.82;5.35;;;13.80;96.10;;;;;;5030257;28;20041;-71